createdAt,value
2022-12-14T00:01:19.231Z,109.80
2022-12-14T00:03:47.210Z,110.40
2022-12-14T00:06:23.564Z,106.80
2022-12-14T00:08:52.368Z,115.30
2022-12-14T00:11:22.601Z,126.40
2022-12-14T00:13:54.830Z,136.50
2022-12-14T00:16:23.153Z,127.70
2022-12-14T00:18:52.556Z,109.50
2022-12-14T00:21:20.095Z,114.70
2022-12-14T00:23:50.344Z,106.60
2022-12-14T00:26:19.648Z,105.80
2022-12-14T00:28:49.084Z,101.30
2022-12-14T00:31:16.576Z,99.70
2022-12-14T00:33:44.394Z,101.00
2022-12-14T00:36:12.573Z,96.60
2022-12-14T00:38:40.654Z,94.40
2022-12-14T00:41:08.914Z,97.60
2022-12-14T00:43:35.933Z,95.20
2022-12-14T00:46:03.015Z,94.10
2022-12-14T00:48:30.669Z,100.10
2022-12-14T00:50:57.989Z,101.50
2022-12-14T00:53:25.595Z,100.30
2022-12-14T00:55:52.487Z,88.10
2022-12-14T00:58:21.615Z,111.30
2022-12-14T01:00:59.518Z,97.80
2022-12-14T01:03:27.415Z,91.40
2022-12-14T01:05:54.564Z,92.60
2022-12-14T01:08:21.553Z,99.00
2022-12-14T01:10:50.380Z,80.00
2022-12-14T01:13:17.110Z,87.40
2022-12-14T01:15:44.018Z,100.80
2022-12-14T01:18:11.088Z,103.30
2022-12-14T01:20:37.787Z,90.80
2022-12-14T01:23:04.551Z,90.90
2022-12-14T01:25:31.256Z,93.60
2022-12-14T01:27:57.962Z,100.10
2022-12-14T01:30:24.939Z,105.70
2022-12-14T01:32:51.781Z,95.60
2022-12-14T01:35:18.495Z,91.60
2022-12-14T01:37:45.445Z,86.90
2022-12-14T01:40:16.236Z,92.50
2022-12-14T01:42:43.109Z,91.10
2022-12-14T01:45:21.602Z,95.80
2022-12-14T01:47:56.000Z,91.20
2022-12-14T01:50:30.382Z,92.80
2022-12-14T01:53:03.076Z,90.70
2022-12-14T01:55:36.271Z,81.30
2022-12-14T01:58:10.992Z,83.30
2022-12-14T02:00:38.667Z,80.30
2022-12-14T02:03:09.044Z,74.40
2022-12-14T02:05:39.859Z,73.10
2022-12-14T02:08:07.831Z,76.00
2022-12-14T02:10:35.373Z,88.60
2022-12-14T02:13:10.139Z,75.00
2022-12-14T02:15:38.990Z,61.50
2022-12-14T02:18:09.625Z,55.50
2022-12-14T02:20:49.407Z,58.50
2022-12-14T02:23:31.822Z,57.50
2022-12-14T02:26:22.773Z,63.20
2022-12-14T02:29:08.779Z,59.00
2022-12-14T02:31:55.526Z,53.80
2022-12-14T02:34:46.641Z,64.00
2022-12-14T02:37:23.212Z,48.40
2022-12-14T02:40:08.527Z,64.60
2022-12-14T02:42:45.831Z,71.50
2022-12-14T02:45:24.202Z,60.60
2022-12-14T02:47:58.261Z,57.00
2022-12-14T02:50:34.399Z,57.50
2022-12-14T02:53:18.171Z,59.80
2022-12-14T02:55:50.183Z,72.10
2022-12-14T02:58:36.258Z,56.00
2022-12-14T03:01:04.077Z,56.20
2022-12-14T03:03:31.229Z,56.70
2022-12-14T03:06:01.409Z,60.50
2022-12-14T03:08:31.857Z,62.30
2022-12-14T03:11:02.587Z,66.60
2022-12-14T03:13:42.316Z,67.80
2022-12-14T03:16:24.050Z,62.80
2022-12-14T03:18:59.092Z,57.60
2022-12-14T03:21:31.724Z,69.20
2022-12-14T03:24:02.767Z,59.80
2022-12-14T03:26:35.847Z,53.70
2022-12-14T03:29:15.712Z,65.60
2022-12-14T03:31:55.954Z,62.30
2022-12-14T03:34:30.011Z,54.60
2022-12-14T03:37:10.460Z,67.90
2022-12-14T03:39:40.134Z,60.90
2022-12-14T03:42:22.082Z,60.40
2022-12-14T03:45:00.079Z,63.00
2022-12-14T03:47:40.217Z,51.10
2022-12-14T03:50:11.555Z,47.50
2022-12-14T03:52:50.384Z,56.70
2022-12-14T03:55:29.829Z,58.20
2022-12-14T03:58:10.195Z,55.10
2022-12-14T04:00:50.178Z,48.70
2022-12-14T04:03:32.649Z,50.40
2022-12-14T04:06:06.195Z,44.10
2022-12-14T04:08:42.614Z,45.50
2022-12-14T04:11:29.021Z,49.40
2022-12-14T04:14:27.673Z,41.00
2022-12-14T04:17:11.473Z,50.10
2022-12-14T04:19:45.561Z,51.10
2022-12-14T04:22:23.927Z,55.40
2022-12-14T04:25:26.049Z,47.60
2022-12-14T04:28:34.932Z,45.90
2022-12-14T04:31:05.933Z,40.00
2022-12-14T04:33:53.091Z,44.40
2022-12-14T04:36:23.240Z,47.40
2022-12-14T04:38:56.736Z,38.10
2022-12-14T04:41:28.705Z,38.10
2022-12-14T04:44:00.540Z,41.90
2022-12-14T04:46:35.184Z,42.50
2022-12-14T04:49:20.008Z,42.40
2022-12-14T04:52:05.631Z,40.50
2022-12-14T04:54:49.329Z,52.40
2022-12-14T04:57:23.907Z,47.50
2022-12-14T04:59:51.033Z,59.20
2022-12-14T05:02:48.338Z,55.20
2022-12-14T05:05:34.288Z,68.90
2022-12-14T05:08:12.134Z,51.60
2022-12-14T05:10:46.185Z,50.20
2022-12-14T05:13:17.438Z,60.20
2022-12-14T05:15:48.649Z,55.40
2022-12-14T05:18:15.986Z,61.60
2022-12-14T05:20:42.885Z,59.50
2022-12-14T05:23:09.710Z,60.00
2022-12-14T05:25:36.619Z,63.30
2022-12-14T05:28:03.702Z,68.50
2022-12-14T05:30:30.760Z,57.10
2022-12-14T05:32:57.722Z,49.10
2022-12-14T05:35:24.528Z,46.00
2022-12-14T05:37:51.272Z,38.30
2022-12-14T05:40:18.359Z,24.10
2022-12-14T05:42:47.691Z,13.00
2022-12-14T05:45:18.011Z,34.10
2022-12-14T05:47:45.187Z,36.10
2022-12-14T05:50:12.259Z,44.30
2022-12-14T05:52:39.068Z,44.00
2022-12-14T05:55:06.748Z,44.70
2022-12-14T05:57:33.517Z,36.60
2022-12-14T06:00:00.389Z,41.40
2022-12-14T06:02:27.308Z,40.90
2022-12-14T06:04:54.183Z,34.30
2022-12-14T06:07:26.091Z,29.90
2022-12-14T06:09:54.717Z,34.80
2022-12-14T06:12:21.551Z,29.00
2022-12-14T06:14:48.254Z,36.60
2022-12-14T06:17:15.085Z,26.50
2022-12-14T06:19:42.606Z,25.90
2022-12-14T06:22:16.642Z,29.80
2022-12-14T06:24:43.449Z,26.80
2022-12-14T06:27:10.213Z,29.10
2022-12-14T06:29:37.082Z,31.60
2022-12-14T06:32:03.877Z,28.40
2022-12-14T06:34:35.261Z,29.50
2022-12-14T06:37:06.383Z,20.60
2022-12-14T06:39:33.339Z,27.00
2022-12-14T06:42:00.104Z,25.50
2022-12-14T06:44:26.915Z,31.40
2022-12-14T06:46:54.062Z,25.60
2022-12-14T06:49:20.885Z,25.30
2022-12-14T06:51:48.054Z,28.90
2022-12-14T06:54:16.313Z,31.10
2022-12-14T06:56:45.553Z,32.40
2022-12-14T06:59:13.557Z,25.10
2022-12-14T07:01:40.485Z,32.70
2022-12-14T07:04:08.639Z,33.50
2022-12-14T07:06:38.952Z,29.40
2022-12-14T07:09:07.356Z,31.80
2022-12-14T07:11:34.498Z,35.10
2022-12-14T07:14:03.293Z,20.90
2022-12-14T07:16:30.025Z,22.70
2022-12-14T07:18:57.743Z,24.10
2022-12-14T07:21:25.513Z,28.30
2022-12-14T07:23:53.044Z,38.60
2022-12-14T07:26:23.867Z,31.50
2022-12-14T07:28:51.487Z,32.10
2022-12-14T07:31:22.359Z,37.30
2022-12-14T07:33:51.902Z,34.30
2022-12-14T07:36:20.237Z,32.60
2022-12-14T07:38:49.345Z,43.10
2022-12-14T07:41:22.667Z,44.60
2022-12-14T07:43:51.585Z,32.40
2022-12-14T07:46:21.324Z,49.70
2022-12-14T07:48:50.494Z,52.50
2022-12-14T07:51:19.471Z,47.10
2022-12-14T07:53:46.454Z,48.80
2022-12-14T07:56:16.154Z,52.00
2022-12-14T07:58:43.315Z,49.10
2022-12-14T08:01:25.526Z,51.00
2022-12-14T08:04:05.510Z,52.50
2022-12-14T08:06:34.172Z,49.80
2022-12-14T08:09:01.641Z,54.10
2022-12-14T08:11:29.115Z,41.20
2022-12-14T08:13:58.616Z,50.90
2022-12-14T08:16:25.740Z,51.30
2022-12-14T08:18:54.564Z,54.90
2022-12-14T08:21:22.524Z,56.70
2022-12-14T08:23:50.935Z,53.80
2022-12-14T08:26:18.566Z,50.10
2022-12-14T08:28:45.964Z,68.50
2022-12-14T08:31:17.635Z,69.40
2022-12-14T08:33:45.931Z,70.20
2022-12-14T08:36:19.878Z,68.70
2022-12-14T08:38:46.670Z,74.60
2022-12-14T08:41:15.855Z,65.70
2022-12-14T08:43:54.848Z,69.20
2022-12-14T08:46:22.686Z,73.20
2022-12-14T08:48:52.486Z,55.80
2022-12-14T08:51:20.968Z,33.00
2022-12-14T08:53:48.313Z,63.80
2022-12-14T08:56:18.271Z,39.50
2022-12-14T08:58:45.381Z,62.20
2022-12-14T09:01:16.014Z,60.80
2022-12-14T09:03:45.674Z,62.70
2022-12-14T09:06:15.666Z,50.70
2022-12-14T09:08:43.002Z,47.20
2022-12-14T09:11:13.152Z,47.70
2022-12-14T09:13:40.319Z,46.40
2022-12-14T09:16:10.948Z,50.40
2022-12-14T09:18:38.039Z,44.00
2022-12-14T09:21:04.994Z,41.50
2022-12-14T09:23:33.947Z,42.50
2022-12-14T09:26:03.375Z,37.80
2022-12-14T09:28:31.467Z,36.10
2022-12-14T09:31:00.725Z,38.60
2022-12-14T09:33:29.056Z,40.00
2022-12-14T09:36:02.310Z,36.30
2022-12-14T09:38:31.938Z,29.30
2022-12-14T09:41:05.898Z,36.60
2022-12-14T09:43:44.059Z,22.90
2022-12-14T09:46:18.282Z,28.00
2022-12-14T09:48:45.885Z,32.60
2022-12-14T09:51:16.927Z,24.00
2022-12-14T09:53:47.266Z,28.60
2022-12-14T09:56:18.228Z,32.60
2022-12-14T09:58:53.514Z,28.50
2022-12-14T10:01:22.694Z,26.80
2022-12-14T10:04:08.578Z,24.90
2022-12-14T10:06:46.877Z,24.50
2022-12-14T10:09:18.054Z,31.00
2022-12-14T10:12:07.931Z,29.50
2022-12-14T10:14:57.020Z,29.70
2022-12-14T10:17:30.385Z,62.30
2022-12-14T10:20:04.593Z,28.90
2022-12-14T10:25:13.490Z,53.10
2022-12-14T10:28:09.828Z,40.80
2022-12-14T10:30:33.024Z,25.20
2022-12-14T10:33:16.654Z,23.00
2022-12-14T10:35:51.085Z,26.30
2022-12-14T10:38:25.757Z,26.50
2022-12-14T10:40:59.734Z,23.20
2022-12-14T10:43:32.607Z,22.70
2022-12-14T10:46:19.799Z,23.50
2022-12-14T10:48:56.451Z,24.00
2022-12-14T10:51:44.566Z,25.70
2022-12-14T10:54:30.527Z,24.00
2022-12-14T10:56:57.467Z,20.60
2022-12-14T10:59:31.167Z,19.90
2022-12-14T11:02:09.464Z,21.00
2022-12-14T11:04:39.159Z,18.50
2022-12-14T11:07:09.353Z,22.10
2022-12-14T11:09:37.772Z,25.20
2022-12-14T11:12:08.325Z,20.30
2022-12-14T11:14:37.093Z,26.70
2022-12-14T11:17:04.286Z,20.80
2022-12-14T11:19:31.144Z,19.10
2022-12-14T11:22:12.300Z,22.00
2022-12-14T11:24:45.969Z,23.10
2022-12-14T11:27:16.845Z,24.00
2022-12-14T11:29:47.733Z,26.50
2022-12-14T11:32:20.164Z,25.90
2022-12-14T11:34:56.080Z,28.40
2022-12-14T11:37:24.542Z,23.30
2022-12-14T11:39:55.422Z,29.00
2022-12-14T11:42:23.409Z,31.00
2022-12-14T11:44:51.615Z,30.10
2022-12-14T11:47:22.071Z,29.50
2022-12-14T11:49:54.453Z,28.80
2022-12-14T11:52:25.767Z,17.50
2022-12-14T11:54:52.555Z,24.80
2022-12-14T11:57:22.766Z,30.40
2022-12-14T11:59:53.853Z,33.10
2022-12-14T12:02:36.190Z,31.00
2022-12-14T12:05:21.979Z,35.30
2022-12-14T12:07:49.762Z,21.80
2022-12-14T12:10:21.912Z,35.40
2022-12-14T12:12:57.916Z,36.70
2022-12-14T12:15:30.379Z,41.90
2022-12-14T12:18:03.992Z,35.30
2022-12-14T12:20:38.197Z,35.70
2022-12-14T12:23:20.118Z,35.60
2022-12-14T12:25:51.640Z,31.00
2022-12-14T12:28:36.534Z,29.90
2022-12-14T12:31:11.113Z,34.10
2022-12-14T12:33:46.206Z,33.30
2022-12-14T12:36:23.473Z,30.00
2022-12-14T12:39:02.596Z,41.10
2022-12-14T12:41:46.525Z,37.40
2022-12-14T12:44:23.146Z,44.00
2022-12-14T12:47:24.425Z,28.00
2022-12-14T12:49:53.993Z,31.10
2022-12-14T12:52:25.225Z,20.70
2022-12-14T12:54:58.709Z,13.60
2022-12-14T12:57:30.961Z,31.50
2022-12-14T12:59:59.534Z,27.60
2022-12-14T13:02:31.891Z,33.60
2022-12-14T13:05:43.946Z,27.30
2022-12-14T13:07:59.113Z,33.50
2022-12-14T13:10:32.110Z,36.00
2022-12-14T13:13:08.971Z,36.20
2022-12-14T13:15:52.937Z,47.30
2022-12-14T13:18:57.920Z,39.20
2022-12-14T13:21:28.200Z,31.70
2022-12-14T13:23:55.153Z,32.80
2022-12-14T13:26:57.379Z,35.50
2022-12-14T13:29:55.491Z,39.30
2022-12-14T13:32:37.931Z,34.30
2022-12-14T13:35:06.204Z,35.80
2022-12-14T13:37:44.556Z,19.40
2022-12-14T13:40:30.185Z,33.30
2022-12-14T13:43:12.213Z,12.70
2022-12-14T13:45:43.951Z,32.00
2022-12-14T13:48:23.817Z,33.20
2022-12-14T13:51:02.352Z,29.80
2022-12-14T13:53:32.565Z,31.30
2022-12-14T13:56:01.510Z,28.60
2022-12-14T13:58:38.788Z,27.00
2022-12-14T14:01:11.960Z,24.30
2022-12-14T14:03:38.910Z,24.10
2022-12-14T14:06:09.316Z,35.70
2022-12-14T14:08:42.091Z,39.00
2022-12-14T14:11:36.869Z,26.30
2022-12-14T14:14:04.691Z,33.60
2022-12-14T14:16:49.113Z,37.60
2022-12-14T14:19:37.452Z,37.10
2022-12-14T14:22:24.316Z,44.80
2022-12-14T14:24:58.302Z,39.00
2022-12-14T14:27:32.806Z,45.50
2022-12-14T14:30:30.570Z,43.50
2022-12-14T14:33:19.902Z,37.90
2022-12-14T14:35:45.319Z,30.10
2022-12-14T14:38:32.576Z,36.50
2022-12-14T14:41:19.316Z,39.40
2022-12-14T14:43:52.545Z,50.70
2022-12-14T14:46:33.267Z,37.90
2022-12-14T14:49:00.459Z,36.70
2022-12-14T14:51:30.582Z,39.40
2022-12-14T14:54:53.900Z,37.20
2022-12-14T14:57:43.032Z,43.30
2022-12-14T15:00:11.145Z,38.10
2022-12-14T15:02:42.024Z,39.70
2022-12-14T15:08:16.614Z,34.60
2022-12-14T15:10:45.261Z,38.30
2022-12-14T15:13:20.774Z,33.70
2022-12-14T15:15:51.766Z,39.00
2022-12-14T15:18:24.585Z,37.50
2022-12-14T15:21:11.417Z,29.00
2022-12-14T15:23:43.187Z,33.70
2022-12-14T15:26:17.259Z,35.80
2022-12-14T15:28:52.115Z,36.90
2022-12-14T15:31:30.534Z,33.80
2022-12-14T15:33:59.187Z,30.20
2022-12-14T15:36:32.073Z,32.70
2022-12-14T15:38:59.249Z,34.70
2022-12-14T15:41:29.253Z,32.40
2022-12-14T15:44:36.436Z,34.10
2022-12-14T15:47:03.331Z,26.30
2022-12-14T15:49:30.202Z,30.00
2022-12-14T15:51:58.465Z,27.40
2022-12-14T15:54:26.287Z,28.90
2022-12-14T15:56:57.020Z,31.80
2022-12-14T15:59:44.972Z,33.30
2022-12-14T16:02:32.210Z,25.70
2022-12-14T16:05:02.475Z,42.40
2022-12-14T16:07:39.030Z,31.10
2022-12-14T16:10:23.158Z,37.60
2022-12-14T16:13:15.175Z,30.10
2022-12-14T16:15:43.094Z,36.10
2022-12-14T16:18:13.706Z,26.50
2022-12-14T16:20:59.524Z,30.90
2022-12-14T16:23:31.902Z,28.30
2022-12-14T16:26:03.271Z,41.30
2022-12-14T16:28:33.952Z,27.80
2022-12-14T16:31:05.455Z,82.80
2022-12-14T16:33:35.468Z,83.80
2022-12-14T16:36:03.793Z,53.70
2022-12-14T16:38:47.859Z,24.10
2022-12-14T16:41:14.592Z,24.20
2022-12-14T16:43:42.048Z,25.70
2022-12-14T16:46:28.209Z,30.70
2022-12-14T16:49:17.771Z,43.50
2022-12-14T16:52:09.622Z,46.60
2022-12-14T16:54:38.029Z,46.00
2022-12-14T16:57:25.617Z,47.90
2022-12-14T17:00:04.770Z,45.40
2022-12-14T17:02:36.318Z,38.70
2022-12-14T17:05:11.700Z,42.60
2022-12-14T17:07:38.748Z,40.90
2022-12-14T17:10:14.442Z,40.60
2022-12-14T17:12:41.254Z,42.10
2022-12-14T17:15:25.321Z,39.80
2022-12-14T17:17:55.540Z,81.00
2022-12-14T17:20:29.301Z,62.20
2022-12-14T17:22:58.794Z,120.10
2022-12-14T17:25:27.551Z,40.10
2022-12-14T17:28:10.429Z,39.90
2022-12-14T17:30:38.191Z,40.10
2022-12-14T17:33:05.021Z,43.70
2022-12-14T17:35:33.021Z,42.40
2022-12-14T17:37:59.943Z,36.40
2022-12-14T17:40:27.613Z,34.60
2022-12-14T17:42:57.380Z,40.00
2022-12-14T17:45:26.977Z,39.80
2022-12-14T17:48:13.805Z,29.00
2022-12-14T17:50:56.702Z,29.60
2022-12-14T17:53:29.697Z,33.50
2022-12-14T17:55:57.015Z,42.80
2022-12-14T17:58:23.796Z,34.00
2022-12-14T18:01:06.383Z,37.90
2022-12-14T18:03:37.974Z,21.90
2022-12-14T18:06:05.877Z,37.60
2022-12-14T18:08:33.141Z,34.80
2022-12-14T18:11:10.232Z,24.90
2022-12-14T18:13:56.685Z,37.80
2022-12-14T18:16:24.544Z,33.30
2022-12-14T18:18:54.317Z,41.90
2022-12-14T18:21:24.527Z,41.70
2022-12-14T18:23:52.664Z,41.70
2022-12-14T18:26:50.363Z,42.30
2022-12-14T18:29:32.661Z,57.80
2022-12-14T18:32:00.090Z,77.80
2022-12-14T18:34:42.602Z,42.30
2022-12-14T18:37:29.657Z,46.50
2022-12-14T18:39:59.348Z,49.20
2022-12-14T18:42:26.113Z,48.40
2022-12-14T18:45:15.439Z,39.50
2022-12-14T18:48:01.304Z,42.20
2022-12-14T18:50:29.971Z,44.10
2022-12-14T18:52:57.384Z,52.40
2022-12-14T18:55:41.042Z,50.40
2022-12-14T18:58:08.320Z,46.60
2022-12-14T19:00:36.872Z,44.20
2022-12-14T19:03:05.038Z,47.60
2022-12-14T19:05:32.749Z,42.10
2022-12-14T19:08:00.814Z,33.50
2022-12-14T19:10:31.958Z,32.80
2022-12-14T19:12:59.393Z,45.30
2022-12-14T19:15:31.459Z,40.70
2022-12-14T19:17:58.516Z,36.40
2022-12-14T19:20:26.304Z,35.90
2022-12-14T19:23:15.283Z,38.80
2022-12-14T19:25:42.834Z,31.40
2022-12-14T19:30:58.288Z,38.40
2022-12-14T19:33:25.678Z,33.30
2022-12-14T19:35:52.555Z,42.70
2022-12-14T19:38:19.697Z,34.20
2022-12-14T19:41:00.677Z,39.20
2022-12-14T19:43:30.546Z,34.90
2022-12-14T19:45:57.682Z,35.20
2022-12-14T19:48:40.518Z,35.50
2022-12-14T19:51:11.117Z,32.00
2022-12-14T19:53:55.253Z,31.80
2022-12-14T19:56:24.621Z,34.00
2022-12-14T19:58:55.821Z,38.00
2022-12-14T20:01:24.714Z,32.30
2022-12-14T20:03:51.927Z,34.00
2022-12-14T20:06:19.078Z,35.80
2022-12-14T20:08:49.470Z,32.40
2022-12-14T20:11:17.815Z,33.20
2022-12-14T20:13:44.790Z,33.70
2022-12-14T20:16:17.368Z,35.20
2022-12-14T20:18:45.940Z,34.10
2022-12-14T20:21:18.586Z,32.60
2022-12-14T20:23:49.256Z,31.70
2022-12-14T20:26:19.481Z,37.30
2022-12-14T20:28:49.453Z,36.40
2022-12-14T20:31:16.863Z,39.70
2022-12-14T20:33:44.898Z,42.20
2022-12-14T20:36:12.656Z,43.40
2022-12-14T20:38:39.725Z,47.00
2022-12-14T20:41:09.998Z,51.50
2022-12-14T20:43:52.208Z,59.30
2022-12-14T20:46:34.711Z,42.30
2022-12-14T20:49:06.381Z,46.00
2022-12-14T20:51:35.772Z,44.20
2022-12-14T20:54:04.429Z,51.30
2022-12-14T20:56:31.367Z,51.30
2022-12-14T20:58:58.178Z,51.60
2022-12-14T21:01:25.193Z,52.50
2022-12-14T21:03:52.289Z,140.50
2022-12-14T21:06:22.010Z,113.50
2022-12-14T21:09:05.299Z,99.60
2022-12-14T21:11:49.874Z,71.60
2022-12-14T21:16:43.417Z,72.50
2022-12-14T21:19:12.172Z,88.10
2022-12-14T21:21:40.268Z,100.50
2022-12-14T21:24:09.729Z,137.70
2022-12-14T21:26:38.058Z,139.30
2022-12-14T21:29:06.189Z,116.00
2022-12-14T21:31:34.394Z,99.10
2022-12-14T21:34:01.344Z,92.80
2022-12-14T21:36:28.299Z,77.80
2022-12-14T21:38:55.542Z,76.20
2022-12-14T21:41:37.718Z,70.70
2022-12-14T21:44:04.842Z,62.40
2022-12-14T21:46:31.891Z,61.00
2022-12-14T21:48:59.419Z,61.30
2022-12-14T21:51:26.128Z,58.40
2022-12-14T21:54:02.211Z,57.20
2022-12-14T21:56:47.554Z,46.60
2022-12-14T21:59:16.710Z,40.50
2022-12-14T22:01:43.802Z,39.00
2022-12-14T22:04:10.742Z,36.30
2022-12-14T22:06:37.482Z,33.90
2022-12-14T22:09:05.290Z,42.10
2022-12-14T22:11:32.397Z,162.60
2022-12-14T22:14:02.442Z,141.40
2022-12-14T22:16:31.912Z,36.70
2022-12-14T22:19:00.021Z,41.40
2022-12-14T22:21:27.591Z,40.10
2022-12-14T22:23:55.023Z,31.80
2022-12-14T22:26:21.964Z,57.70
2022-12-14T22:28:52.506Z,45.60
2022-12-14T22:31:20.880Z,34.60
2022-12-14T22:33:49.709Z,60.50
2022-12-14T22:36:17.125Z,179.40
2022-12-14T22:38:44.720Z,92.90
2022-12-14T22:41:14.705Z,48.70
2022-12-14T22:43:42.480Z,48.10
2022-12-14T22:46:12.136Z,38.70
2022-12-14T22:48:39.652Z,89.90
2022-12-14T22:51:10.307Z,97.90
2022-12-14T22:53:38.357Z,35.90
2022-12-14T22:56:21.029Z,48.10
2022-12-14T22:58:55.136Z,69.80
2022-12-14T23:03:55.930Z,79.70
2022-12-14T23:09:05.299Z,94.30
2022-12-14T23:11:48.011Z,87.60
2022-12-14T23:14:30.444Z,90.00
2022-12-14T23:17:13.848Z,96.90
2022-12-14T23:19:58.732Z,101.30
2022-12-14T23:22:45.434Z,76.80
2022-12-14T23:25:32.325Z,73.80
2022-12-14T23:28:14.794Z,62.90
2022-12-14T23:30:56.994Z,66.50
2022-12-14T23:33:39.252Z,54.70
2022-12-14T23:36:21.699Z,59.10
2022-12-14T23:39:04.031Z,52.00
2022-12-14T23:41:46.166Z,52.60
2022-12-14T23:44:28.707Z,54.80
2022-12-14T23:47:10.884Z,52.70
2022-12-14T23:49:53.126Z,49.00
2022-12-14T23:52:35.346Z,53.20
2022-12-14T23:55:17.300Z,103.80
2022-12-14T23:57:59.483Z,51.30
